Time;durP1;ratioP1;P1;durP2;ratioP2;P2;SDS_P1;SDS_P2;PMS_P1;PMS_P2;Temp;Humidity;BMP_temperature;BMP_pressure;BME280_temperature;BME280_humidity;BME280_pressure;Samples;Min_cycle;Max_cycle;Signal;HPM_P1;HPM_P2
2023/03/14 00:00:49;;;;;;;2.08;0.90;;;;;;;8.64;100.00;98634.13;6222381;23;20340;-63
2023/03/14 00:03:15;;;;;;;2.47;1.10;;;;;;;8.55;100.00;98634.28;6221540;23;20027;-65
2023/03/14 00:05:42;;;;;;;2.55;0.95;;;;;;;8.48;100.00;98635.28;6222612;23;20020;-67
2023/03/14 00:08:08;;;;;;;3.08;1.00;;;;;;;8.43;100.00;98632.38;6224227;23;20044;-64
2023/03/14 00:10:36;;;;;;;4.82;1.23;;;;;;;8.43;100.00;98629.69;6215482;23;20088;-63
2023/03/14 00:13:03;;;;;;;3.75;1.20;;;;;;;8.46;100.00;98619.44;6223221;23;20476;-63
2023/03/14 00:15:29;;;;;;;2.85;1.02;;;;;;;8.41;100.00;98608.53;6223583;23;20354;-64
2023/03/14 00:17:55;;;;;;;2.65;1.10;;;;;;;8.38;100.00;98595.56;6223717;23;20091;-64
2023/03/14 00:20:22;;;;;;;2.78;1.30;;;;;;;8.30;100.00;98599.22;6222842;23;20080;-63
2023/03/14 00:22:49;;;;;;;3.78;1.10;;;;;;;8.25;100.00;98584.81;6223770;23;20021;-64
2023/03/14 00:25:15;;;;;;;2.45;0.93;;;;;;;8.16;100.00;98588.66;6224189;23;20016;-64
2023/03/14 00:27:42;;;;;;;3.85;1.30;;;;;;;8.21;100.00;98578.22;6224392;23;20024;-66
2023/03/14 00:30:10;;;;;;;4.43;1.08;;;;;;;8.23;100.00;98568.16;6223519;23;20020;-63
2023/03/14 00:32:37;;;;;;;4.10;1.30;;;;;;;8.23;100.00;98570.84;6194998;23;20373;-64
2023/03/14 00:35:04;;;;;;;2.17;1.00;;;;;;;8.27;100.00;98566.75;6212553;23;20032;-64
2023/03/14 00:37:30;;;;;;;4.22;1.20;;;;;;;8.17;100.00;98553.75;6222893;23;20017;-64
2023/03/14 00:39:58;;;;;;;4.35;1.30;;;;;;;8.04;100.00;98551.81;6224118;23;20043;-63
2023/03/14 00:42:25;;;;;;;1.88;1.00;;;;;;;8.13;100.00;98561.34;6222091;23;20445;-63
2023/03/14 00:44:51;;;;;;;3.40;1.10;;;;;;;8.06;100.00;98570.34;6223597;23;20021;-65
2023/03/14 00:47:18;;;;;;;2.05;1.10;;;;;;;8.06;100.00;98570.34;6223531;23;20457;-63
2023/03/14 00:49:45;;;;;;;3.42;1.13;;;;;;;8.09;100.00;98564.59;6223082;23;20024;-63
2023/03/14 00:52:11;;;;;;;3.05;1.08;;;;;;;8.03;100.00;98555.53;6222416;23;20484;-64
2023/03/14 00:54:40;;;;;;;0.85;0.80;;;;;;;8.08;100.00;98552.25;6200548;23;20076;-63
2023/03/14 00:57:06;;;;;;;3.78;1.10;;;;;;;8.00;100.00;98547.06;6207783;23;20021;-63
2023/03/14 00:59:33;;;;;;;5.78;1.33;;;;;;;7.93;100.00;98539.03;6222720;23;20020;-64
2023/03/14 01:01:59;;;;;;;2.30;1.00;;;;;;;7.94;100.00;98530.00;6223169;23;20040;-65
2023/03/14 01:04:26;;;;;;;2.60;1.08;;;;;;;7.87;100.00;98539.81;6223811;23;20029;-64
2023/03/14 01:06:53;;;;;;;5.20;1.25;;;;;;;7.92;100.00;98516.03;6224772;23;20489;-63
2023/03/14 01:09:19;;;;;;;2.38;1.52;;;;;;;7.93;100.00;98524.88;6224086;23;20402;-65
2023/03/14 01:11:46;;;;;;;6.63;1.38;;;;;;;7.88;100.00;98520.09;6224976;23;20021;-65
2023/03/14 01:14:13;;;;;;;6.07;1.30;;;;;;;7.84;100.00;98526.84;6223729;23;20023;-64
2023/03/14 01:16:39;;;;;;;1.40;1.05;;;;;;;7.81;100.00;98532.53;6224757;23;20031;-64
2023/03/14 01:19:06;;;;;;;2.60;1.25;;;;;;;7.82;100.00;98551.06;6223308;23;20021;-64
2023/03/14 01:21:34;;;;;;;2.85;1.20;;;;;;;7.74;100.00;98563.72;6223687;23;20029;-64
2023/03/14 01:24:03;;;;;;;2.33;1.02;;;;;;;7.81;100.00;98577.91;6220183;23;20396;-72
2023/03/14 01:26:32;;;;;;;2.88;1.33;;;;;;;7.79;100.00;98593.31;6209789;23;20028;-73
2023/03/14 01:28:59;;;;;;;1.25;0.90;;;;;;;7.65;100.00;98566.53;6210356;23;20471;-70
2023/03/14 01:31:27;;;;;;;2.15;0.90;;;;;;;7.68;100.00;98585.84;6210664;23;20453;-72
2023/03/14 01:33:54;;;;;;;2.65;1.10;;;;;;;7.58;100.00;98589.69;6211481;23;20032;-71
2023/03/14 01:36:20;;;;;;;3.55;0.82;;;;;;;7.58;100.00;98600.34;6210633;23;20345;-72
2023/03/14 01:38:47;;;;;;;3.00;1.58;;;;;;;7.58;100.00;98592.34;6210458;23;20045;-73
2023/03/14 01:41:19;;;;;;;2.20;1.08;;;;;;;7.65;100.00;98592.41;6157550;23;20021;-71
2023/03/14 01:43:46;;;;;;;;;;;;;;;7.64;100.00;98588.91;6210190;23;20387;-72
2023/03/14 01:46:25;;;;;;;2.03;1.00;;;;;;;7.65;100.00;98595.88;6209891;23;19950;-72
2023/03/14 01:49:10;;;;;;;1.90;1.20;;;;;;;7.66;100.00;98602.88;6208872;23;20078;-72
2023/03/14 01:52:01;;;;;;;2.30;1.00;;;;;;;7.62;100.00;98606.13;6209048;23;20020;-72
2023/03/14 01:54:31;;;;;;;6.30;1.60;;;;;;;7.65;100.00;98611.09;6210421;23;20100;-72
2023/03/14 01:57:04;;;;;;;3.60;1.27;;;;;;;7.63;100.00;98607.75;6210281;23;20021;-71
2023/03/14 01:59:32;;;;;;;3.10;1.45;;;;;;;7.60;100.00;98592.13;6209553;23;20475;-73
2023/03/14 02:01:59;;;;;;;2.90;0.90;;;;;;;7.55;100.00;98579.38;6198985;23;20016;-72
2023/03/14 02:04:30;;;;;;;3.58;1.05;;;;;;;7.53;100.00;98573.41;6209392;23;20090;-71
2023/03/14 02:07:30;;;;;;;3.60;1.40;;;;;;;7.55;100.00;98567.88;6212124;23;20060;-72
2023/03/14 02:10:01;;;;;;;5.70;1.30;;;;;;;7.45;100.00;98562.88;6209682;23;20243;-73
2023/03/14 02:12:28;;;;;;;3.80;1.00;;;;;;;7.52;100.00;98562.94;6211482;23;20031;-71
2023/03/14 02:14:54;;;;;;;3.00;0.90;;;;;;;7.51;100.00;98556.78;6210054;23;20027;-71
2023/03/14 02:17:22;;;;;;;2.42;1.00;;;;;;;7.51;100.00;98561.31;6211727;23;20496;-72
2023/03/14 02:19:58;;;;;;;1.40;1.00;;;;;;;7.43;100.00;98552.41;6183701;23;20016;-73
2023/03/14 02:22:25;;;;;;;1.35;1.00;;;;;;;7.50;100.00;98560.47;6210266;23;20032;-71
2023/03/14 02:25:07;;;;;;;5.07;1.25;;;;;;;7.45;100.00;98560.22;6208907;23;20458;-71
2023/03/14 02:27:34;;;;;;;5.95;0.77;;;;;;;7.42;100.00;98556.09;6209180;23;20096;-71
2023/03/14 02:30:06;;;;;;;1.98;0.73;;;;;;;7.41;100.00;98561.63;6209607;23;20219;-71
2023/03/14 02:32:35;;;;;;;2.28;1.20;;;;;;;7.45;100.00;98552.22;6209897;23;20103;-72
2023/03/14 02:35:09;;;;;;;3.08;1.15;;;;;;;7.38;100.00;98540.66;6210828;23;20024;-71
2023/03/14 02:37:41;;;;;;;1.88;0.90;;;;;;;7.37;100.00;98541.69;6209740;23;20021;-71
2023/03/14 02:40:09;;;;;;;2.88;1.00;;;;;;;7.45;100.00;98538.06;6210013;23;20071;-71
2023/03/14 02:42:35;;;;;;;2.17;1.27;;;;;;;7.46;100.00;98542.34;6209798;23;20454;-71
2023/03/14 02:45:08;;;;;;;3.92;1.10;;;;;;;7.53;100.00;98538.72;6209302;23;20021;-72
2023/03/14 02:47:41;;;;;;;1.38;0.70;;;;;;;7.46;100.00;98537.84;6209361;23;20095;-72
2023/03/14 02:50:18;;;;;;;5.95;0.95;;;;;;;7.42;100.00;98531.25;6209395;23;20040;-72
2023/03/14 02:52:44;;;;;;;2.92;0.95;;;;;;;7.41;100.00;98518.94;6210318;23;20021;-72
2023/03/14 02:55:10;;;;;;;1.60;1.17;;;;;;;7.37;100.00;98521.16;6209744;23;20021;-72
2023/03/14 02:57:37;;;;;;;2.83;0.80;;;;;;;7.41;100.00;98509.09;6209127;23;20024;-72
2023/03/14 03:00:05;;;;;;;1.17;0.75;;;;;;;7.45;100.00;98503.38;6208777;23;20016;-72
2023/03/14 03:02:32;;;;;;;2.00;1.00;;;;;;;7.34;100.00;98502.06;6208156;23;20052;-72
2023/03/14 03:04:58;;;;;;;1.33;0.68;;;;;;;7.30;100.00;98500.81;6209424;23;20025;-72
2023/03/14 03:07:25;;;;;;;0.75;0.52;;;;;;;7.30;100.00;98484.81;6209466;23;20446;-71
2023/03/14 03:09:51;;;;;;;1.83;0.80;;;;;;;7.26;100.00;98475.53;6211107;23;20031;-72
2023/03/14 03:12:18;;;;;;;1.63;1.00;;;;;;;7.31;100.00;98470.44;6208955;23;20025;-72
2023/03/14 03:14:44;;;;;;;1.90;0.80;;;;;;;7.28;100.00;98455.66;6169700;23;20108;-73
2023/03/14 03:17:11;;;;;;;1.15;0.73;;;;;;;7.30;100.00;98450.94;6209784;23;20031;-73
2023/03/14 03:19:37;;;;;;;3.67;0.98;;;;;;;7.30;100.00;98447.47;6199117;23;20454;-72
2023/03/14 03:22:04;;;;;;;1.80;0.85;;;;;;;7.27;100.00;98453.19;6209946;23;20513;-72
2023/03/14 03:24:30;;;;;;;3.97;0.77;;;;;;;7.24;100.00;98458.91;6208985;23;20032;-72
2023/03/14 03:26:57;;;;;;;3.55;1.05;;;;;;;7.22;100.00;98467.06;6210343;23;20028;-72
2023/03/14 03:29:24;;;;;;;1.20;0.63;;;;;;;7.27;100.00;98472.66;6171868;23;20029;-72
2023/03/14 03:31:50;;;;;;;1.25;0.75;;;;;;;7.23;100.00;98481.25;6210674;23;20020;-73
2023/03/14 03:34:17;;;;;;;1.45;0.90;;;;;;;7.16;100.00;98474.03;6211796;23;20390;-72
2023/03/14 03:36:44;;;;;;;1.17;0.80;;;;;;;7.17;100.00;98485.50;6210264;23;20396;-72
2023/03/14 03:39:11;;;;;;;2.15;0.85;;;;;;;7.21;100.00;98489.44;6211369;23;20016;-68
2023/03/14 03:41:38;;;;;;;1.95;0.93;;;;;;;7.22;100.00;98493.75;6211626;23;20021;-69
2023/03/14 03:44:05;;;;;;;2.28;0.82;;;;;;;7.17;100.00;98496.19;6211337;23;20039;-69
2023/03/14 03:46:32;;;;;;;9.20;1.02;;;;;;;7.18;100.00;98484.50;6210915;23;20024;-69
2023/03/14 03:49:00;;;;;;;3.42;1.10;;;;;;;7.24;100.00;98474.91;6212345;23;20467;-69
2023/03/14 03:51:27;;;;;;;1.00;0.80;;;;;;;7.25;100.00;98465.88;6210892;23;20020;-70
2023/03/14 03:53:53;;;;;;;1.50;0.73;;;;;;;7.27;100.00;98470.00;6211943;23;20017;-69
2023/03/14 03:56:20;;;;;;;1.20;0.70;;;;;;;7.11;100.00;98479.09;6210722;23;20031;-69
2023/03/14 03:58:46;;;;;;;4.70;0.80;;;;;;;7.17;100.00;98474.84;6211660;23;20028;-69
2023/03/14 04:01:13;;;;;;;1.02;0.70;;;;;;;7.22;100.00;98476.94;6211580;23;20043;-69
2023/03/14 04:03:40;;;;;;;2.83;1.08;;;;;;;7.15;100.00;98477.72;6210554;23;20016;-69
2023/03/14 04:06:12;;;;;;;3.03;0.95;;;;;;;7.16;100.00;98483.88;6212112;23;20071;-68
2023/03/14 04:08:40;;;;;;;0.90;0.70;;;;;;;7.11;100.00;98471.09;6210914;23;20056;-67
2023/03/14 04:11:07;;;;;;;2.28;0.70;;;;;;;7.13;100.00;98469.06;6210789;23;20042;-68
2023/03/14 04:13:33;;;;;;;2.38;0.77;;;;;;;7.13;100.00;98469.06;6210877;23;20161;-69
2023/03/14 04:16:00;;;;;;;1.90;0.80;;;;;;;7.08;100.00;98474.16;6210936;23;20348;-69
2023/03/14 04:18:27;;;;;;;2.47;0.85;;;;;;;7.04;100.00;98474.75;6211309;23;20030;-69
2023/03/14 04:20:55;;;;;;;2.40;0.90;;;;;;;7.11;100.00;98463.09;6211423;23;20468;-69
2023/03/14 04:23:26;;;;;;;3.17;0.85;;;;;;;7.10;100.00;98461.47;6210607;23;20099;-68
2023/03/14 04:25:53;;;;;;;1.23;0.60;;;;;;;7.07;100.00;98453.84;6210854;23;20103;-68
2023/03/14 04:28:20;;;;;;;3.30;0.88;;;;;;;7.07;100.00;98453.84;6209702;23;20024;-69
2023/03/14 04:30:47;;;;;;;3.35;0.90;;;;;;;7.11;100.00;98440.94;6211534;23;20028;-69
2023/03/14 04:33:16;;;;;;;1.10;0.75;;;;;;;7.08;100.00;98452.00;6210832;23;20397;-69
2023/03/14 04:35:44;;;;;;;1.10;0.70;;;;;;;7.12;100.00;98450.63;6211271;23;20408;-69
2023/03/14 04:38:11;;;;;;;1.95;0.75;;;;;;;7.15;100.00;98442.22;6211098;23;20020;-69
2023/03/14 04:40:41;;;;;;;2.10;0.93;;;;;;;7.08;100.00;98444.81;6208032;23;20030;-69
2023/03/14 04:43:10;;;;;;;2.88;1.00;;;;;;;7.03;100.00;98431.25;6211816;23;20027;-69
2023/03/14 04:45:37;;;;;;;1.67;0.93;;;;;;;7.06;100.00;98424.72;6210592;23;20031;-69
2023/03/14 04:48:04;;;;;;;3.40;1.08;;;;;;;7.03;100.00;98417.13;6210071;23;20023;-68
2023/03/14 04:50:30;;;;;;;2.35;0.60;;;;;;;7.07;100.00;98405.03;6210259;23;20021;-68
2023/03/14 04:52:57;;;;;;;1.20;0.80;;;;;;;7.07;100.00;98413.03;6209896;23;20025;-69
2023/03/14 04:55:23;;;;;;;2.40;0.93;;;;;;;6.98;100.00;98407.03;6185341;23;20028;-68
2023/03/14 04:57:50;;;;;;;1.48;0.70;;;;;;;7.04;100.00;98405.41;6183678;23;20024;-68
2023/03/14 05:00:20;;;;;;;2.80;1.30;;;;;;;7.01;100.00;98421.78;6210430;23;20021;-69
2023/03/14 05:02:46;;;;;;;3.20;0.88;;;;;;;6.98;100.00;98425.69;6210069;23;20031;-68
2023/03/14 05:05:13;;;;;;;1.88;0.80;;;;;;;6.97;100.00;98426.69;6210071;23;20427;-70
2023/03/14 05:07:39;;;;;;;4.35;0.90;;;;;;;6.95;100.00;98423.41;6211043;23;20361;-68
2023/03/14 05:10:06;;;;;;;2.33;1.10;;;;;;;6.99;100.00;98418.53;6211625;23;20016;-68
2023/03/14 05:12:33;;;;;;;1.45;0.77;;;;;;;6.93;100.00;98414.78;6205444;23;20465;-69
2023/03/14 05:14:59;;;;;;;4.30;1.10;;;;;;;6.90;100.00;98423.16;6211601;23;20027;-67
2023/03/14 05:17:26;;;;;;;4.57;1.02;;;;;;;6.87;100.00;98410.22;6202403;23;20392;-69
2023/03/14 05:19:52;;;;;;;3.17;0.98;;;;;;;6.90;100.00;98402.66;6210343;23;20031;-69
2023/03/14 05:22:19;;;;;;;6.43;1.00;;;;;;;6.99;100.00;98389.19;6211463;23;20108;-69
2023/03/14 05:24:46;;;;;;;3.17;0.90;;;;;;;6.88;100.00;98393.22;6210511;23;20020;-68
2023/03/14 05:27:13;;;;;;;1.70;0.80;;;;;;;6.98;100.00;98400.84;6210647;23;20454;-67
2023/03/14 05:29:40;;;;;;;2.97;1.02;;;;;;;6.97;100.00;98400.03;6210465;23;20023;-69
2023/03/14 05:32:06;;;;;;;3.05;1.15;;;;;;;6.92;100.00;98392.63;6195013;23;20024;-67
2023/03/14 05:34:33;;;;;;;1.60;1.02;;;;;;;6.88;100.00;98393.22;6185923;23;20104;-69
2023/03/14 05:36:59;;;;;;;5.05;1.02;;;;;;;7.01;100.00;98397.81;6212011;23;20023;-67
2023/03/14 05:39:26;;;;;;;2.42;0.80;;;;;;;6.90;100.00;98391.16;6213756;23;20016;-76
2023/03/14 05:41:53;;;;;;;4.45;1.00;;;;;;;6.90;100.00;98386.66;6229860;23;20047;-75
2023/03/14 05:44:20;;;;;;;2.78;0.93;;;;;;;6.90;100.00;98397.31;6228953;23;20099;-76
2023/03/14 05:46:47;;;;;;;4.68;1.10;;;;;;;6.91;100.00;98400.81;6226841;23;20047;-75
2023/03/14 05:49:13;;;;;;;2.00;1.00;;;;;;;6.95;100.00;98402.09;6225741;23;20020;-74
2023/03/14 05:51:40;;;;;;;1.45;0.80;;;;;;;6.98;100.00;98398.19;6227490;23;20072;-75
2023/03/14 05:54:06;;;;;;;9.07;1.38;;;;;;;6.93;100.00;98399.59;6221065;23;20076;-75
2023/03/14 05:56:33;;;;;;;2.38;0.93;;;;;;;6.95;100.00;98391.44;6217445;23;20012;-74
2023/03/14 05:59:02;;;;;;;7.15;1.10;;;;;;;6.95;100.00;98391.44;6199565;23;20024;-77
2023/03/14 06:01:29;;;;;;;4.22;0.95;;;;;;;6.98;100.00;98395.53;6198194;23;20047;-74
2023/03/14 06:03:56;;;;;;;3.92;1.42;;;;;;;6.93;100.00;98388.13;6211670;23;20409;-74
2023/03/14 06:06:22;;;;;;;5.93;1.10;;;;;;;6.95;100.00;98400.25;6209375;23;20024;-74
2023/03/14 06:08:49;;;;;;;9.57;1.48;;;;;;;6.96;100.00;98390.41;6208852;23;20022;-74
2023/03/14 06:11:16;;;;;;;6.60;1.10;;;;;;;6.99;100.00;98390.00;6209798;23;20017;-75
2023/03/14 06:13:42;;;;;;;7.55;2.28;;;;;;;6.98;100.00;98385.72;6183603;23;20024;-74
2023/03/14 06:16:09;;;;;;;8.70;2.13;;;;;;;7.12;100.00;98387.44;6210817;23;20031;-74
2023/03/14 06:18:35;;;;;;;8.60;1.60;;;;;;;7.12;100.00;98382.13;6184821;23;20017;-74
2023/03/14 06:21:02;;;;;;;5.75;1.15;;;;;;;7.09;100.00;98385.16;6209866;23;20024;-75
2023/03/14 06:23:30;;;;;;;3.95;1.10;;;;;;;7.10;100.00;98383.31;6209968;23;20016;-73
2023/03/14 06:25:57;;;;;;;4.78;1.40;;;;;;;7.11;100.00;98392.97;6208461;23;20028;-75
2023/03/14 06:28:23;;;;;;;8.20;1.65;;;;;;;7.18;100.00;98394.66;6211069;23;20361;-75
2023/03/14 06:30:51;;;;;;;5.82;1.38;;;;;;;7.15;100.00;98389.72;6209914;23;20016;-74
2023/03/14 06:33:18;;;;;;;6.57;1.33;;;;;;;7.18;100.00;98397.31;6211446;23;20029;-74
2023/03/14 06:35:44;;;;;;;8.38;1.20;;;;;;;7.26;100.00;98384.88;6210418;23;20096;-73
2023/03/14 06:38:11;;;;;;;6.57;1.00;;;;;;;7.31;100.00;98375.25;6209998;23;20071;-74
2023/03/14 06:40:38;;;;;;;8.15;1.15;;;;;;;7.35;100.00;98386.34;6210088;23;20360;-75
2023/03/14 06:43:04;;;;;;;8.93;1.55;;;;;;;7.36;100.00;98401.31;6207135;23;20027;-74
2023/03/14 06:45:31;;;;;;;4.55;1.23;;;;;;;7.40;100.00;98406.09;6210375;23;20028;-74
2023/03/14 06:47:57;;;;;;;18.45;2.05;;;;;;;7.44;100.00;98419.84;6208003;23;20024;-74
2023/03/14 06:50:24;;;;;;;7.90;2.03;;;;;;;7.46;100.00;98414.31;6210401;23;20099;-75
2023/03/14 06:52:50;;;;;;;7.15;1.70;;;;;;;7.53;100.00;98417.84;6209857;23;20480;-75
2023/03/14 06:55:17;;;;;;;5.50;2.10;;;;;;;7.54;100.00;98416.84;6211989;23;20016;-63
2023/03/14 06:57:46;;;;;;;13.40;3.08;;;;;;;7.65;100.00;98421.59;6209377;23;20021;-75
2023/03/14 07:00:13;;;;;;;11.57;2.35;;;;;;;7.70;100.00;98421.00;6210841;23;20467;-75
2023/03/14 07:02:40;;;;;;;11.80;1.55;;;;;;;7.69;100.00;98427.38;6210178;23;20350;-74
2023/03/14 07:05:10;;;;;;;4.82;1.60;;;;;;;7.81;100.00;98417.75;6185676;23;20036;-74
2023/03/14 07:07:36;;;;;;;5.53;1.20;;;;;;;7.98;100.00;98435.13;6197451;23;20029;-75
2023/03/14 07:10:03;;;;;;;5.90;1.40;;;;;;;7.97;100.00;98433.47;6210421;23;20107;-74
2023/03/14 07:12:30;;;;;;;6.63;1.50;;;;;;;7.84;100.00;98428.06;6211203;23;20020;-74
2023/03/14 07:14:56;;;;;;;6.70;1.27;;;;;;;7.85;100.00;98427.91;6211689;23;20100;-72
2023/03/14 07:17:28;;;;;;;7.63;1.40;;;;;;;7.88;100.00;98424.84;6212658;23;20036;-75
2023/03/14 07:19:55;;;;;;;14.80;2.90;;;;;;;8.01;100.00;98432.06;6211989;23;20088;-75
2023/03/14 07:22:21;;;;;;;5.40;1.45;;;;;;;7.88;100.00;98429.31;6211360;23;20028;-75
2023/03/14 07:24:48;;;;;;;8.85;1.30;;;;;;;7.92;100.00;98427.94;6211147;23;20036;-76
2023/03/14 07:27:14;;;;;;;2.78;1.02;;;;;;;8.14;100.00;98450.81;6212321;23;20020;-76
2023/03/14 07:29:41;;;;;;;11.25;1.40;;;;;;;8.51;100.00;98445.97;6211425;23;20390;-76
2023/03/14 07:32:08;;;;;;;7.30;1.15;;;;;;;8.87;100.00;98439.44;6211521;23;20027;-76
2023/03/14 07:34:34;;;;;;;6.53;1.73;;;;;;;8.86;100.00;98440.47;6212288;23;20095;-76
2023/03/14 07:37:01;;;;;;;10.95;1.77;;;;;;;8.70;100.00;98448.88;6211485;23;20450;-76
2023/03/14 07:39:28;;;;;;;14.57;2.15;;;;;;;8.83;100.00;98459.59;6211395;23;20366;-75
2023/03/14 07:41:54;;;;;;;5.68;1.50;;;;;;;8.72;100.00;98452.19;6211140;23;20013;-75
2023/03/14 07:44:21;;;;;;;6.47;1.42;;;;;;;8.80;100.00;98455.47;6211341;23;20100;-75
2023/03/14 07:46:47;;;;;;;5.78;1.60;;;;;;;8.87;100.00;98443.97;6210979;23;20099;-76
2023/03/14 07:49:14;;;;;;;11.05;3.72;;;;;;;8.72;100.00;98457.53;6211587;23;20400;-75
2023/03/14 07:51:44;;;;;;;9.82;1.83;;;;;;;8.66;100.00;98461.84;6179316;23;20049;-75
2023/03/14 07:54:11;;;;;;;9.25;2.95;;;;;;;8.57;100.00;98453.19;6204388;23;20024;-76
2023/03/14 07:56:37;;;;;;;5.32;2.42;;;;;;;8.66;100.00;98453.00;6211155;23;20084;-76
2023/03/14 07:59:04;;;;;;;4.68;1.67;;;;;;;8.80;100.00;98452.81;6211548;23;20038;-75
2023/03/14 08:01:30;;;;;;;7.75;2.30;;;;;;;8.80;100.00;98449.31;6212178;23;20024;-76
2023/03/14 08:03:57;;;;;;;9.27;1.67;;;;;;;8.78;100.00;98432.63;6211292;23;20111;-76
2023/03/14 08:06:23;;;;;;;6.65;1.42;;;;;;;8.73;100.00;98443.13;6211743;23;20094;-76
2023/03/14 08:08:50;;;;;;;4.85;1.77;;;;;;;8.40;100.00;98441.25;6212464;23;20099;-75
2023/03/14 08:11:16;;;;;;;3.72;1.20;;;;;;;8.47;100.00;98428.72;6211350;23;20449;-76
2023/03/14 08:13:49;;;;;;;3.25;1.42;;;;;;;8.56;100.00;98434.69;6211187;23;20031;-76
2023/03/14 08:16:19;;;;;;;7.78;1.20;;;;;;;8.58;100.00;98436.13;6212314;23;20020;-76
2023/03/14 08:18:45;;;;;;;7.95;1.75;;;;;;;8.66;100.00;98427.09;6210488;23;20099;-76
2023/03/14 08:21:12;;;;;;;7.43;1.60;;;;;;;8.53;100.00;98417.19;6211911;23;20032;-76
2023/03/14 08:23:39;;;;;;;8.60;1.73;;;;;;;8.38;100.00;98414.72;6212387;23;20104;-75
2023/03/14 08:26:07;;;;;;;11.10;1.75;;;;;;;8.48;100.00;98430.34;6211253;23;20024;-74
2023/03/14 08:28:33;;;;;;;5.15;1.70;;;;;;;8.50;100.00;98422.94;6208962;23;20071;-75
2023/03/14 08:31:00;;;;;;;8.18;2.03;;;;;;;8.27;100.00;98428.66;6210682;23;20458;-75
2023/03/14 08:33:28;;;;;;;8.88;1.45;;;;;;;8.51;100.00;98435.28;6211496;23;20103;-75
2023/03/14 08:35:56;;;;;;;8.98;1.98;;;;;;;8.42;100.00;98428.47;6210533;23;20458;-76
2023/03/14 08:38:33;;;;;;;15.18;1.88;;;;;;;8.29;100.00;98437.28;6209417;23;20055;-75
2023/03/14 08:41:01;;;;;;;6.53;2.25;;;;;;;8.52;100.00;98436.13;6175273;23;20431;-75
2023/03/14 08:43:28;;;;;;;10.32;1.75;;;;;;;8.38;100.00;98440.59;6179912;23;20104;-74
2023/03/14 08:45:59;;;;;;;8.10;2.20;;;;;;;8.50;100.00;98449.66;6211701;23;20044;-75
2023/03/14 08:48:26;;;;;;;9.52;2.08;;;;;;;8.40;100.00;98451.06;6196998;23;20450;-76
2023/03/14 08:50:53;;;;;;;9.38;1.58;;;;;;;8.46;100.00;98451.09;6211504;23;20573;-74
2023/03/14 08:53:20;;;;;;;6.78;1.48;;;;;;;8.29;100.00;98453.31;6211470;23;20028;-76
2023/03/14 08:55:47;;;;;;;10.10;1.83;;;;;;;8.41;100.00;98455.41;6211656;23;20046;-75
2023/03/14 08:58:13;;;;;;;7.15;1.85;;;;;;;8.48;100.00;98459.75;6210841;23;20335;-76
2023/03/14 09:00:40;;;;;;;10.80;1.85;;;;;;;8.38;100.00;98461.97;6210618;23;20099;-76
2023/03/14 09:03:06;;;;;;;4.97;1.58;;;;;;;8.42;100.00;98454.38;6210294;23;20326;-77
2023/03/14 09:05:34;;;;;;;6.68;1.27;;;;;;;8.45;100.00;98459.31;6210367;23;20032;-75
2023/03/14 09:08:01;;;;;;;6.25;1.50;;;;;;;8.72;100.00;98452.19;6210345;23;20021;-76
2023/03/14 09:10:28;;;;;;;7.68;1.67;;;;;;;8.98;100.00;98446.03;6200399;23;20385;-74
2023/03/14 09:12:54;;;;;;;4.07;1.60;;;;;;;9.51;100.00;98438.00;6184740;23;20044;-75
2023/03/14 09:15:22;;;;;;;7.55;1.83;;;;;;;10.93;100.00;98433.41;6210924;23;20047;-76
2023/03/14 09:17:48;;;;;;;7.47;1.83;;;;;;;11.47;100.00;98429.19;6210695;23;20027;-76
2023/03/14 09:20:16;;;;;;;5.75;1.40;;;;;;;11.48;100.00;98424.66;6210668;23;20040;-76
2023/03/14 09:22:42;;;;;;;6.97;1.23;;;;;;;11.97;100.00;98415.66;6208186;23;20028;-76
2023/03/14 09:25:10;;;;;;;8.07;2.03;;;;;;;12.67;98.35;98427.75;6210803;23;20026;-77
2023/03/14 09:27:36;;;;;;;5.45;1.73;;;;;;;12.75;92.28;98424.75;6209532;23;20031;-76
2023/03/14 09:30:06;;;;;;;8.73;2.10;;;;;;;13.12;85.34;98420.03;6210623;23;20024;-76
2023/03/14 09:32:33;;;;;;;6.35;1.65;;;;;;;13.07;84.73;98412.63;6210626;23;20111;-74
2023/03/14 09:35:00;;;;;;;9.43;1.50;;;;;;;13.36;80.17;98420.84;6207810;23;20095;-76
2023/03/14 09:37:27;;;;;;;10.55;1.98;;;;;;;12.98;77.84;98419.41;6210157;23;20327;-76
2023/03/14 09:39:53;;;;;;;3.92;1.30;;;;;;;12.66;83.77;98426.94;6211384;23;20016;-77
2023/03/14 09:42:25;;;;;;;7.10;1.58;;;;;;;11.43;94.34;98423.44;6209713;23;20023;-76
2023/03/14 09:45:18;;;;;;;;;;;;;;;10.82;100.00;98418.81;6209605;23;20331;-76
2023/03/14 09:47:56;;;;;;;5.60;1.60;;;;;;;10.37;100.00;98418.06;6205246;23;19916;-75
2023/03/14 09:50:29;;;;;;;6.07;1.75;;;;;;;10.18;100.00;98415.28;6209689;23;20127;-76
2023/03/14 09:53:06;;;;;;;4.55;1.50;;;;;;;10.06;100.00;98427.69;6208133;23;20453;-75
2023/03/14 09:55:33;;;;;;;4.85;1.63;;;;;;;9.79;100.00;98422.47;6194090;23;20051;-76
2023/03/14 09:58:09;;;;;;;7.00;1.60;;;;;;;9.61;100.00;98421.47;6182551;23;20088;-75
2023/03/14 10:00:45;;;;;;;8.52;1.50;;;;;;;9.63;100.00;98427.47;6209123;23;20020;-76
2023/03/14 10:03:11;;;;;;;7.78;1.40;;;;;;;9.44;100.00;98424.63;6210250;23;20087;-76
2023/03/14 10:05:40;;;;;;;11.18;1.73;;;;;;;9.57;100.00;98424.56;6210476;23;20397;-74
2023/03/14 10:08:10;;;;;;;6.15;1.40;;;;;;;9.57;100.00;98437.13;6209455;23;20376;-76
2023/03/14 10:10:37;;;;;;;8.02;1.50;;;;;;;9.44;100.00;98443.38;6183591;23;20020;-75
2023/03/14 10:13:18;;;;;;;19.65;2.13;;;;;;;9.49;100.00;98442.72;6210878;23;20025;-76
2023/03/14 10:16:02;;;;;;;;;;;;;;;9.43;100.00;98438.19;6210971;23;20074;-76
2023/03/14 10:18:30;;;;;;;10.43;1.80;;;;;;;9.46;100.00;98425.22;6210142;23;19991;-74
2023/03/14 10:21:28;;;;;;;4.63;1.10;;;;;;;9.48;100.00;98428.53;6210775;23;20027;-76
2023/03/14 10:24:10;;;;;;;6.10;1.48;;;;;;;9.50;100.00;98425.63;6201979;23;20041;-76
2023/03/14 10:26:40;;;;;;;;;;;;;;;9.36;100.00;98430.19;6151410;23;20068;-76
2023/03/14 10:29:12;;;;;;;11.15;1.70;;;;;;;9.55;100.00;98429.34;6151352;23;19939;-76
2023/03/14 10:31:49;;;;;;;;;;;;;;;9.30;100.00;98429.19;6151466;23;20044;-75
2023/03/14 10:34:27;;;;;;;6.38;1.42;;;;;;;9.42;100.00;98442.72;6151736;23;19917;-75
2023/03/14 10:37:05;;;;;;;3.53;1.55;;;;;;;9.27;100.00;98436.81;6151917;23;20022;-76
2023/03/14 10:39:45;;;;;;;3.08;0.90;;;;;;;9.35;100.00;98431.22;6149646;23;20025;-76
2023/03/14 10:42:14;;;;;;;6.88;1.30;;;;;;;9.31;100.00;98438.03;6151528;23;20057;-76
2023/03/14 10:44:42;;;;;;;7.40;1.20;;;;;;;9.37;100.00;98437.19;6153492;23;20017;-76
2023/03/14 10:47:17;;;;;;;19.77;1.70;;;;;;;9.33;100.00;98443.97;6152848;23;20482;-76
2023/03/14 10:49:44;;;;;;;12.43;1.65;;;;;;;9.38;100.00;98436.16;6151414;23;20032;-76
2023/03/14 10:52:15;;;;;;;5.18;0.77;;;;;;;9.26;100.00;98443.16;6153310;23;20024;-76
2023/03/14 10:54:47;;;;;;;7.47;1.20;;;;;;;9.28;100.00;98441.94;6152873;23;20018;-76
2023/03/14 10:57:13;;;;;;;4.95;0.80;;;;;;;9.34;100.00;98434.94;6138675;23;20028;-76
2023/03/14 10:59:43;;;;;;;2.63;0.70;;;;;;;9.52;100.00;98440.44;6142099;23;20013;-75
2023/03/14 11:02:45;;;;;;;5.50;1.33;;;;;;;9.59;100.00;98442.31;6152772;23;20041;-76
2023/03/14 11:05:32;;;;;;;6.15;1.38;;;;;;;9.46;100.00;98435.09;6155035;23;20469;-75
2023/03/14 11:08:09;;;;;;;3.42;1.00;;;;;;;9.59;100.00;98439.63;6152330;23;20025;-73
2023/03/14 11:10:42;;;;;;;5.82;1.15;;;;;;;9.50;100.00;98437.16;6153752;23;20024;-74
2023/03/14 11:13:26;;;;;;;3.75;0.82;;;;;;;9.42;100.00;98436.56;6154285;23;20018;-74
2023/03/14 11:16:26;;;;;;;3.33;1.10;;;;;;;9.40;100.00;98431.41;6153700;23;20025;-74
2023/03/14 11:19:17;;;;;;;10.07;1.05;;;;;;;9.41;100.00;98422.38;6153809;23;20068;-74
2023/03/14 11:21:50;;;;;;;1.38;0.68;;;;;;;9.49;100.00;98432.84;6153639;23;20025;-74
2023/03/14 11:24:41;;;;;;;9.73;0.90;;;;;;;9.45;100.00;98436.97;6160403;23;20110;-74
2023/03/14 11:27:17;;;;;;;5.72;1.05;;;;;;;9.35;100.00;98425.88;6213083;23;20103;-74
2023/03/14 11:30:14;;;;;;;5.68;1.00;;;;;;;9.57;100.00;98429.09;6213271;23;20032;-73
2023/03/14 11:33:00;;;;;;;5.97;1.10;;;;;;;9.51;100.00;98430.78;6211684;23;20048;-74
2023/03/14 11:35:36;;;;;;;4.03;1.05;;;;;;;9.30;100.00;98437.22;6213036;23;20048;-75
2023/03/14 11:38:10;;;;;;;8.57;1.92;;;;;;;9.27;100.00;98426.91;6206077;23;20027;-74
2023/03/14 11:40:40;;;;;;;5.13;1.10;;;;;;;9.25;100.00;98425.47;6212324;23;20021;-74
2023/03/14 11:43:08;;;;;;;4.88;1.23;;;;;;;9.33;100.00;98433.28;6211008;23;20327;-74